Time;durP1;ratioP1;P1;durP2;ratioP2;P2;SDS_P1;SDS_P2;PMS_P1;PMS_P2;Temp;Humidity;BMP_temperature;BMP_pressure;BME280_temperature;BME280_humidity;BME280_pressure;Samples;Min_cycle;Max_cycle;Signal;HPM_P1;HPM_P2
2023/06/20 11:36:07;;;;;;;16.05;14.55;;;;;;;;;;6305990;22;20029;-88
2023/06/20 11:38:38;;;;;;;18.35;15.88;;;;;;;;;;6329945;22;20011;-96
2023/06/20 11:41:08;;;;;;;17.98;16.15;;;;;;;;;;6327303;22;20011;-96
2023/06/20 11:43:36;;;;;;;18.00;16.13;;;;;;;;;;6294998;22;20053;-96
2023/06/20 16:26:24;;;;;;;15.97;12.70;;;;;;;;;;6290649;22;20015;-94
2023/06/20 16:28:49;;;;;;;12.38;11.18;;;;;;;;;;6311801;22;20007;-96
2023/06/20 16:31:15;;;;;;;12.77;10.70;;;;;;;;;;6310253;22;19995;-96
2023/06/20 16:33:40;;;;;;;13.00;11.20;;;;;;;;;;6308428;22;20007;-96
2023/06/20 16:36:06;;;;;;;15.65;11.98;;;;;;;;;;6310039;22;20422;-95
2023/06/20 16:38:31;;;;;;;13.40;11.90;;;;;;;;;;6309316;22;20003;-96
2023/06/20 16:40:56;;;;;;;11.48;10.25;;;;;;;;;;6309651;22;20440;-96
2023/06/20 16:43:23;;;;;;;12.00;10.80;;;;;;;;;;6309676;22;20422;-95
2023/06/20 16:45:48;;;;;;;11.10;10.02;;;;;;;;;;6307105;22;20088;-94
2023/06/20 16:48:14;;;;;;;12.63;11.15;;;;;;;;;;6309412;22;20007;-93
2023/06/20 16:50:39;;;;;;;12.30;10.23;;;;;;;;;;6309949;22;20001;-95
2023/06/20 16:53:04;;;;;;;13.88;11.52;;;;;;;;;;6309290;22;20006;-95
2023/06/20 16:55:30;;;;;;;14.55;13.05;;;;;;;;;;6309607;22;19999;-89
2023/06/20 16:57:55;;;;;;;13.73;12.23;;;;;;;;;;6308362;22;20003;-89
2023/06/20 17:00:21;;;;;;;14.45;11.88;;;;;;;;;;6308330;22;20354;-90
2023/06/20 17:02:46;;;;;;;11.77;10.68;;;;;;;;;;6308226;22;20049;-90
2023/06/20 17:05:12;;;;;;;13.60;12.32;;;;;;;;;;6307347;22;20053;-93
2023/06/20 17:07:38;;;;;;;13.38;11.48;;;;;;;;;;6309350;22;20003;-88
2023/06/20 17:10:04;;;;;;;13.27;11.98;;;;;;;;;;6307986;22;20011;-89
2023/06/20 17:12:30;;;;;;;12.63;11.43;;;;;;;;;;6310237;22;20003;-89
2023/06/20 17:14:58;;;;;;;12.93;11.10;;;;;;;;;;6310796;22;20003;-95
2023/06/20 17:17:25;;;;;;;14.30;10.80;;;;;;;;;;6311826;22;20374;-89
2023/06/20 17:19:50;;;;;;;13.05;11.77;;;;;;;;;;6307599;22;20086;-89
2023/06/20 17:22:16;;;;;;;14.38;12.98;;;;;;;;;;6308648;22;20041;-88
2023/06/20 17:24:43;;;;;;;15.15;12.23;;;;;;;;;;6309225;22;20422;-93
2023/06/20 17:27:09;;;;;;;13.35;12.02;;;;;;;;;;6309515;22;20074;-88
2023/06/20 17:29:35;;;;;;;16.83;12.70;;;;;;;;;;6309503;22;19999;-88
2023/06/20 17:32:00;;;;;;;13.73;12.38;;;;;;;;;;6307895;22;20315;-88
2023/06/20 17:34:26;;;;;;;13.85;12.45;;;;;;;;;;6308788;22;20042;-87
2023/06/20 17:36:52;;;;;;;14.68;13.27;;;;;;;;;;6309670;22;20003;-83
2023/06/20 17:39:20;;;;;;;14.57;12.68;;;;;;;;;;6309441;22;19999;-83
2023/06/20 17:41:45;;;;;;;14.60;12.80;;;;;;;;;;6309352;22;20007;-83
2023/06/20 17:44:14;;;;;;;13.63;12.23;;;;;;;;;;6309462;22;20059;-85
2023/06/20 17:46:40;;;;;;;13.15;12.02;;;;;;;;;;6309390;22;20004;-87
2023/06/20 17:49:05;;;;;;;12.77;11.57;;;;;;;;;;6309856;22;20007;-85
2023/06/20 17:51:31;;;;;;;12.88;11.63;;;;;;;;;;6309580;22;20082;-85
2023/06/20 17:53:56;;;;;;;13.82;12.20;;;;;;;;;;6309490;22;20078;-81
2023/06/20 17:56:22;;;;;;;12.95;11.20;;;;;;;;;;6309268;22;20033;-83
2023/06/20 17:58:52;;;;;;;13.73;12.43;;;;;;;;;;6309375;22;20007;-86
2023/06/20 18:01:19;;;;;;;13.95;12.50;;;;;;;;;;6309200;22;20007;-86
2023/06/20 18:03:45;;;;;;;13.15;11.85;;;;;;;;;;6309647;22;19999;-88
2023/06/20 18:06:10;;;;;;;13.68;11.98;;;;;;;;;;6309748;22;20072;-86
2023/06/20 18:08:36;;;;;;;13.65;11.75;;;;;;;;;;6309438;22;20074;-86
2023/06/20 18:11:01;;;;;;;13.02;11.73;;;;;;;;;;6309532;22;20411;-89
2023/06/20 18:13:27;;;;;;;14.80;12.65;;;;;;;;;;6309673;22;20003;-88
2023/06/20 18:15:52;;;;;;;12.90;11.70;;;;;;;;;;6309105;22;20061;-82
2023/06/20 18:18:17;;;;;;;14.80;12.93;;;;;;;;;;6309218;22;19999;-81
2023/06/20 18:20:43;;;;;;;15.10;13.68;;;;;;;;;;6309250;22;20045;-87
2023/06/20 18:23:10;;;;;;;15.60;14.00;;;;;;;;;;6308896;22;20007;-86
2023/06/20 18:25:36;;;;;;;15.02;13.45;;;;;;;;;;6309113;22;20015;-88
2023/06/20 18:28:01;;;;;;;16.02;14.30;;;;;;;;;;6308931;22;20025;-88
2023/06/20 18:30:27;;;;;;;18.50;16.17;;;;;;;;;;6309017;22;20026;-87
2023/06/20 18:32:52;;;;;;;16.45;14.75;;;;;;;;;;6307331;22;20011;-86
2023/06/20 18:35:18;;;;;;;16.42;13.50;;;;;;;;;;6309085;22;19999;-85
2023/06/20 18:37:43;;;;;;;15.20;13.65;;;;;;;;;;6308770;22;20007;-86
2023/06/20 18:40:09;;;;;;;13.88;12.57;;;;;;;;;;6308556;22;20422;-86
2023/06/20 18:42:35;;;;;;;14.27;12.90;;;;;;;;;;6308426;22;20121;-91
2023/06/20 18:45:00;;;;;;;41.95;15.00;;;;;;;;;;6310637;22;20038;-93
2023/06/20 18:47:25;;;;;;;36.40;14.00;;;;;;;;;;6312498;22;20007;-90
2023/06/20 18:49:51;;;;;;;14.15;12.68;;;;;;;;;;6311070;22;20031;-90
2023/06/20 18:52:16;;;;;;;14.27;12.88;;;;;;;;;;6308111;22;20023;-89
2023/06/20 18:54:43;;;;;;;16.55;12.57;;;;;;;;;;6309389;22;19999;-89
2023/06/20 18:57:09;;;;;;;12.45;11.15;;;;;;;;;;6309144;22;20044;-88
2023/06/20 18:59:35;;;;;;;13.88;12.40;;;;;;;;;;6308951;22;20082;-90
2023/06/20 19:02:00;;;;;;;15.32;13.82;;;;;;;;;;6312838;22;20427;-90
2023/06/20 19:04:28;;;;;;;16.58;14.10;;;;;;;;;;6310127;22;20019;-88
2023/06/20 19:06:53;;;;;;;14.45;13.05;;;;;;;;;;6307292;22;20414;-90
2023/06/20 19:09:20;;;;;;;14.68;13.30;;;;;;;;;;6309475;22;20083;-88
2023/06/20 19:11:46;;;;;;;15.05;12.90;;;;;;;;;;6309202;22;20078;-91
2023/06/20 19:14:11;;;;;;;13.77;12.38;;;;;;;;;;6309055;22;20330;-88
2023/06/20 19:16:37;;;;;;;12.82;11.63;;;;;;;;;;6308885;22;20003;-88
2023/06/20 19:19:02;;;;;;;13.35;11.95;;;;;;;;;;6308953;22;20018;-89
2023/06/20 19:21:28;;;;;;;12.55;11.27;;;;;;;;;;6308560;22;20006;-88
2023/06/20 19:23:55;;;;;;;13.13;11.73;;;;;;;;;;6307301;22;20065;-89
2023/06/20 19:26:21;;;;;;;12.95;11.65;;;;;;;;;;6308620;22;20039;-89
2023/06/20 19:28:46;;;;;;;13.80;12.23;;;;;;;;;;6309446;22;19999;-90
2023/06/20 19:31:13;;;;;;;13.30;12.00;;;;;;;;;;6308573;22;20011;-89
2023/06/20 19:33:38;;;;;;;14.48;12.52;;;;;;;;;;6307115;22;20004;-89
2023/06/20 19:36:04;;;;;;;13.45;12.15;;;;;;;;;;6306997;22;20011;-90
2023/06/20 19:38:29;;;;;;;14.25;10.90;;;;;;;;;;6308864;22;20086;-86
2023/06/20 19:40:57;;;;;;;12.93;11.63;;;;;;;;;;6308316;22;20061;-89
2023/06/20 19:43:23;;;;;;;13.30;11.90;;;;;;;;;;6306779;22;20027;-87
2023/06/20 19:45:48;;;;;;;13.60;11.52;;;;;;;;;;6308686;22;20006;-88
2023/06/20 19:48:14;;;;;;;17.15;10.95;;;;;;;;;;6308586;22;20032;-91
2023/06/20 19:50:39;;;;;;;13.07;11.80;;;;;;;;;;6306878;22;20007;-90
2023/06/20 19:53:04;;;;;;;15.38;11.35;;;;;;;;;;6308895;22;20003;-88
2023/06/20 19:55:30;;;;;;;13.40;10.57;;;;;;;;;;6309344;22;20023;-87
2023/06/20 19:57:56;;;;;;;13.77;11.38;;;;;;;;;;6307180;22;20010;-89
2023/06/20 20:00:21;;;;;;;12.45;10.20;;;;;;;;;;6309044;22;20003;-93
2023/06/20 20:02:47;;;;;;;12.85;10.75;;;;;;;;;;6308262;22;20000;-90
2023/06/20 20:05:12;;;;;;;13.00;11.07;;;;;;;;;;6307096;22;20046;-88
2023/06/20 20:07:38;;;;;;;11.07;10.02;;;;;;;;;;6307214;22;20007;-88
2023/06/20 20:10:05;;;;;;;12.82;11.43;;;;;;;;;;6306909;22;20011;-89
2023/06/20 20:12:31;;;;;;;11.88;10.57;;;;;;;;;;6308386;22;20421;-89
2023/06/20 20:14:56;;;;;;;11.63;10.52;;;;;;;;;;6306930;22;20086;-89
2023/06/20 20:17:22;;;;;;;11.70;10.23;;;;;;;;;;6308230;22;20410;-88
2023/06/20 20:19:47;;;;;;;11.80;10.60;;;;;;;;;;6306448;22;20003;-87
2023/06/20 20:22:13;;;;;;;12.07;10.60;;;;;;;;;;6308265;22;20007;-89
2023/06/20 20:24:39;;;;;;;11.70;10.50;;;;;;;;;;6308155;22;20022;-88
2023/06/20 20:27:07;;;;;;;11.88;10.40;;;;;;;;;;6308107;22;20414;-88
2023/06/20 20:29:32;;;;;;;11.93;10.48;;;;;;;;;;6308353;22;19999;-88
2023/06/20 20:31:58;;;;;;;12.65;11.45;;;;;;;;;;6308271;22;20006;-87
2023/06/20 20:34:23;;;;;;;13.73;10.98;;;;;;;;;;6306706;22;20189;-89
2023/06/20 20:36:49;;;;;;;11.30;10.20;;;;;;;;;;6306815;22;19999;-88
2023/06/20 20:39:14;;;;;;;12.45;11.15;;;;;;;;;;6306818;22;20034;-89
2023/06/20 20:41:40;;;;;;;12.95;10.95;;;;;;;;;;6308208;22;20003;-89
2023/06/20 20:44:06;;;;;;;11.13;10.13;;;;;;;;;;6308136;22;20089;-88
2023/06/20 20:46:32;;;;;;;12.85;11.43;;;;;;;;;;6308309;22;19999;-87
2023/06/20 20:48:58;;;;;;;12.27;10.32;;;;;;;;;;6308141;22;20003;-87
2023/06/20 20:51:24;;;;;;;12.00;10.48;;;;;;;;;;6308130;22;20217;-86
2023/06/20 20:53:49;;;;;;;12.77;11.15;;;;;;;;;;6306462;22;20074;-85
2023/06/20 20:56:15;;;;;;;11.82;10.65;;;;;;;;;;6307830;22;20381;-85
2023/06/20 20:58:42;;;;;;;11.05;10.05;;;;;;;;;;6307643;22;20426;-85
2023/06/20 21:01:08;;;;;;;10.43;9.43;;;;;;;;;;6309059;22;20011;-85
2023/06/20 21:03:34;;;;;;;11.95;9.68;;;;;;;;;;6309698;22;20010;-85
2023/06/20 21:05:59;;;;;;;13.18;9.82;;;;;;;;;;6309648;22;20137;-86
2023/06/20 21:08:25;;;;;;;10.95;9.75;;;;;;;;;;6309817;22;19999;-85
2023/06/20 21:10:50;;;;;;;11.73;10.35;;;;;;;;;;6309881;22;20452;-86
2023/06/20 21:13:16;;;;;;;11.80;9.60;;;;;;;;;;6309630;22;20012;-86
2023/06/20 21:15:42;;;;;;;12.15;10.85;;;;;;;;;;6308147;22;20007;-86
2023/06/20 21:18:08;;;;;;;14.20;10.82;;;;;;;;;;6309598;22;20003;-86
2023/06/20 21:20:35;;;;;;;12.50;11.00;;;;;;;;;;6309579;22;20048;-86
2023/06/20 21:23:02;;;;;;;11.27;10.20;;;;;;;;;;6309986;22;19999;-87
2023/06/20 21:25:29;;;;;;;11.48;10.30;;;;;;;;;;6309892;22;20430;-86
